Wilbur, West Virginia
Current Conditions -  °F | °C
As of 6:53 PM on Friday 21 Nov 2014 (Local Time) from KCKB Reporting Station
Clear Clear  
Wind Chill: 24°   Ceiling: Unl
Heat Index: 24°   Visibility: 10mi
Dew Point: 13°   Wind: 0mph
Humidity: 62%   Direction: NA
Pressure: 30.48"   Gusts: NA
Location:  39.4265°N, 80.8222°W
Report Text: KCKB 212353Z 00000KT 10SM CLR M04/M11 A3048 RMK AO2 SLP333 T10441106 11006 21044 50001
Loading
Personal Weather Stations






























Interactive Weather Map New forecast layout! Learn more

10-Day Weather Forecast

Advertisements
Track Severe Weather on mobile